TimeCDT,TemperatureF,Dew PointF,Humidity,Sea Level PressureIn,VisibilityMPH,Wind Direction,Wind SpeedMPH,Gust SpeedMPH,PrecipitationIn,Events,Conditions,WindDirDegrees,DateUTC
12:15 AM,59.0,46.4,63,30.09,10.0,South,8.1,-,N/A,,Clear,170,2013-05-13 05:15:00
12:35 AM,59.0,44.6,59,30.09,10.0,South,6.9,-,N/A,,Clear,170,2013-05-13 05:35:00
12:55 AM,59.0,44.6,59,30.08,10.0,South,4.6,-,N/A,,Clear,180,2013-05-13 05:55:00
1:15 AM,59.0,44.6,59,30.09,10.0,South,5.8,-,N/A,,Clear,170,2013-05-13 06:15:00
1:35 AM,59.0,46.4,63,30.09,10.0,South,5.8,-,N/A,,Clear,190,2013-05-13 06:35:00
1:55 AM,55.4,46.4,72,30.09,10.0,South,6.9,-,N/A,,Clear,190,2013-05-13 06:55:00
2:15 AM,53.6,44.6,72,30.08,10.0,SSW,6.9,-,N/A,,Clear,200,2013-05-13 07:15:00
2:35 AM,53.6,44.6,72,30.08,10.0,SSW,6.9,-,N/A,,Clear,210,2013-05-13 07:35:00
2:55 AM,51.8,44.6,76,30.08,10.0,SW,6.9,-,N/A,,Clear,220,2013-05-13 07:55:00
3:15 AM,50.0,42.8,76,30.08,10.0,SW,9.2,-,N/A,,Clear,230,2013-05-13 08:15:00
3:35 AM,48.2,42.8,82,30.08,10.0,WSW,8.1,-,N/A,,Clear,240,2013-05-13 08:35:00
3:55 AM,46.4,42.8,87,30.07,10.0,SW,8.1,-,N/A,,Clear,230,2013-05-13 08:55:00
4:15 AM,46.4,42.8,87,30.07,10.0,WSW,9.2,-,N/A,,Clear,240,2013-05-13 09:15:00
4:35 AM,46.4,42.8,87,30.07,10.0,SW,9.2,-,N/A,,Clear,230,2013-05-13 09:35:00
4:55 AM,46.4,42.8,87,30.07,10.0,SW,8.1,-,N/A,,Clear,230,2013-05-13 09:55:00
5:15 AM,46.4,42.8,87,30.07,10.0,SW,9.2,-,N/A,,Clear,230,2013-05-13 10:15:00
5:35 AM,46.4,42.8,87,30.06,10.0,SW,9.2,-,N/A,,Clear,230,2013-05-13 10:35:00
5:55 AM,46.4,42.8,87,30.06,10.0,SW,6.9,-,N/A,,Clear,230,2013-05-13 10:55:00
6:15 AM,46.4,42.8,87,30.06,10.0,SW,8.1,-,N/A,,Clear,230,2013-05-13 11:15:00
6:35 AM,46.4,42.8,87,30.06,10.0,SW,8.1,-,N/A,,Clear,220,2013-05-13 11:35:00
6:55 AM,50.0,44.6,82,30.06,10.0,SSW,5.8,-,N/A,,Clear,210,2013-05-13 11:55:00
7:15 AM,53.6,44.6,72,30.06,10.0,South,6.9,-,N/A,,Clear,190,2013-05-13 12:15:00
7:35 AM,55.4,44.6,67,30.06,10.0,SSW,6.9,-,N/A,,Clear,200,2013-05-13 12:35:00
7:55 AM,57.2,46.4,67,30.06,10.0,SSW,4.6,-,N/A,,Clear,200,2013-05-13 12:55:00
8:15 AM,59.0,48.2,67,30.06,10.0,SSW,6.9,-,N/A,,Clear,200,2013-05-13 13:15:00
8:35 AM,62.6,46.4,55,30.07,10.0,SW,9.2,-,N/A,,Clear,230,2013-05-13 13:35:00
8:55 AM,66.2,48.2,52,30.06,10.0,SW,11.5,-,N/A,,Clear,230,2013-05-13 13:55:00
9:15 AM,69.8,46.4,43,30.06,10.0,SW,9.2,-,N/A,,Clear,230,2013-05-13 14:15:00
9:35 AM,73.4,46.4,38,30.06,10.0,WSW,12.7,-,N/A,,Clear,240,2013-05-13 14:35:00
9:55 AM,77.0,44.6,32,30.06,10.0,WSW,13.8,-,N/A,,Clear,250,2013-05-13 14:55:00
10:15 AM,78.8,46.4,32,30.06,10.0,West,13.8,-,N/A,,Clear,260,2013-05-13 15:15:00
10:35 AM,77.0,46.4,34,30.06,10.0,West,10.4,-,N/A,,Clear,270,2013-05-13 15:35:00
10:55 AM,78.8,46.4,32,30.06,10.0,West,8.1,-,N/A,,Clear,260,2013-05-13 15:55:00
11:15 AM,80.6,48.2,32,30.06,10.0,West,9.2,-,N/A,,Clear,260,2013-05-13 16:15:00
11:35 AM,80.6,50.0,34,30.07,10.0,West,8.1,-,N/A,,Clear,270,2013-05-13 16:35:00
11:55 AM,82.4,48.2,30,30.07,10.0,NW,4.6,-,N/A,,Clear,320,2013-05-13 16:55:00
12:15 PM,84.2,46.4,27,30.06,10.0,Calm,Calm,-,N/A,,Clear,0,2013-05-13 17:15:00
12:35 PM,86.0,48.2,27,30.06,10.0,North,3.5,-,N/A,,Clear,350,2013-05-13 17:35:00
12:55 PM,87.8,46.4,24,30.06,10.0,NNW,6.9,-,N/A,,Clear,330,2013-05-13 17:55:00
1:15 PM,87.8,46.4,24,30.05,10.0,WNW,8.1,-,N/A,,Clear,300,2013-05-13 18:15:00
1:35 PM,89.6,44.6,21,30.04,10.0,Calm,Calm,-,N/A,,Clear,0,2013-05-13 18:35:00
1:55 PM,89.6,44.6,21,30.04,10.0,SSE,4.6,-,N/A,,Clear,150,2013-05-13 18:55:00
2:15 PM,89.6,44.6,21,30.04,10.0,NNW,3.5,-,N/A,,Clear,330,2013-05-13 19:15:00
2:35 PM,89.6,44.6,21,30.03,10.0,North,6.9,-,N/A,,Clear,360,2013-05-13 19:35:00
3:35 PM,89.6,44.6,21,30.02,10.0,SE,4.6,-,N/A,,Clear,140,2013-05-13 20:35:00
3:55 PM,91.4,44.6,20,30.01,10.0,Calm,Calm,-,N/A,,Clear,0,2013-05-13 20:55:00
4:15 PM,91.4,44.6,20,30.01,10.0,NNE,3.5,-,N/A,,Clear,30,2013-05-13 21:15:00
4:35 PM,91.4,44.6,20,30.00,10.0,WNW,9.2,-,N/A,,Clear,300,2013-05-13 21:35:00
4:55 PM,91.4,44.6,20,29.99,10.0,North,4.6,-,N/A,,Clear,350,2013-05-13 21:55:00
5:15 PM,91.4,44.6,20,29.99,10.0,North,4.6,-,N/A,,Clear,10,2013-05-13 22:15:00
5:35 PM,91.4,44.6,20,29.99,10.0,NNW,8.1,-,N/A,,Clear,340,2013-05-13 22:35:00
5:55 PM,91.4,46.4,21,29.98,10.0,WNW,5.8,-,N/A,,Clear,300,2013-05-13 22:55:00
6:55 PM,89.6,44.6,21,29.98,10.0,East,4.6,-,N/A,,Clear,80,2013-05-13 23:55:00
7:15 PM,89.6,44.6,21,29.97,10.0,ENE,4.6,-,N/A,,Clear,70,2013-05-14 00:15:00
7:35 PM,87.8,44.6,22,29.97,10.0,East,6.9,-,N/A,,Clear,100,2013-05-14 00:35:00
7:55 PM,87.8,46.4,24,29.97,10.0,ESE,4.6,-,N/A,,Clear,120,2013-05-14 00:55:00
8:15 PM,84.2,46.4,27,29.97,10.0,East,5.8,-,N/A,,Clear,100,2013-05-14 01:15:00
8:35 PM,78.8,44.6,30,29.98,10.0,SE,5.8,-,N/A,,Clear,130,2013-05-14 01:35:00
8:55 PM,77.0,46.4,34,29.98,10.0,East,5.8,-,N/A,,Clear,90,2013-05-14 01:55:00
9:15 PM,73.4,44.6,36,29.98,10.0,East,8.1,-,N/A,,Clear,100,2013-05-14 02:15:00
9:35 PM,73.4,44.6,36,29.98,10.0,ESE,6.9,-,N/A,,Clear,110,2013-05-14 02:35:00
9:55 PM,71.6,44.6,38,29.98,10.0,ESE,5.8,-,N/A,,Clear,120,2013-05-14 02:55:00
10:15 PM,71.6,44.6,38,29.98,10.0,SE,5.8,-,N/A,,Clear,130,2013-05-14 03:15:00
10:35 PM,71.6,44.6,38,29.98,10.0,SE,5.8,-,N/A,,Clear,140,2013-05-14 03:35:00
10:55 PM,71.6,44.6,38,29.98,10.0,SSE,3.5,-,N/A,,Clear,160,2013-05-14 03:55:00
11:15 PM,71.6,44.6,38,29.98,10.0,SSE,9.2,-,N/A,,Clear,150,2013-05-14 04:15:00
11:35 PM,69.8,42.8,38,29.97,10.0,SSE,5.8,-,N/A,,Clear,150,2013-05-14 04:35:00
11:55 PM,69.8,42.8,38,29.97,10.0,SSE,3.5,-,N/A,,Clear,150,2013-05-14 04:55:00